LiveATC.Net - Listen to live air traffic control over the Internet! Contact for advertising information

ICAO: TTPP  IATA: POS   Airport: Piarco International Airport
City: Port of Spain
Country: Trinidad and Tobago   Continent: South America
TTPP METAR Weather: TTPP 280500Z 00000KT 9999 FEW016 24/24 Q1010 NOSIG
TTPP Flight Activity (FlightAware)
TTPP Gnd/Twr/App/Center
Feed Status: UP   Listeners: 3
Listen right in your browser - requires Flash (in browser, requires Flash)
Click here to listen with your own player (launches your MP3 player)
TTPP Gnd/Twr/App/Center Audio Archives
Crown Point118.400
North Apron121.750
Piarco Approach119.000
Piarco Ground121.900
Piarco Tower118.100
Rada Centre123.700
Rada Centre125.400


Unauthorized use prohibited. See Terms of Service

Find LiveATC Audio Streams

Airport/ARTCC Code

(e.g., 124.400, 128.75)
Site-wide search

Browse LiveATC Feeds
LiveATC Coverage Map
Top 50 LiveATC Feeds
Bad Weather Areas

Offer a LiveATC Feed
Press Inquiries

LiveATC on iPhone
LiveATC on Android

Windows Phone
Windows 8/10

LiveATC Mobile
(Mobile browser)

ATC Audio Archives
Interesting Recordings

LiveATC Forums

Home Page
Make a Donation
LiveATC Bookstore

Terms of Use
Privacy Policy

ATC/Radar Sites
U.S. ARTCC Freqs
Canadian Air Freqs


FAA Airport Status
Nat'l Airspace Status
Arrival Demand Charts

Server Software By:

Please make a donation to help us keep growing!